sensor_id;sensor_type;location;lat;lon;timestamp;temperature;humidity
61412;DHT22;47278;49.732;7.690;2023-06-10T00:01:09;14.70;99.90
61412;DHT22;47278;49.732;7.690;2023-06-10T00:03:35;14.50;99.90
61412;DHT22;47278;49.732;7.690;2023-06-10T00:06:01;14.60;99.90
61412;DHT22;47278;49.732;7.690;2023-06-10T00:08:27;14.60;99.90
61412;DHT22;47278;49.732;7.690;2023-06-10T00:10:56;14.50;99.90
61412;DHT22;47278;49.732;7.690;2023-06-10T00:13:22;14.50;99.90
61412;DHT22;47278;49.732;7.690;2023-06-10T00:15:48;14.40;99.90
61412;DHT22;47278;49.732;7.690;2023-06-10T00:18:14;14.50;99.90
61412;DHT22;47278;49.732;7.690;2023-06-10T00:20:46;14.40;99.90
61412;DHT22;47278;49.732;7.690;2023-06-10T00:23:14;14.40;99.90
61412;DHT22;47278;49.732;7.690;2023-06-10T00:25:40;14.40;99.90
61412;DHT22;47278;49.732;7.690;2023-06-10T00:28:06;14.40;99.90
61412;DHT22;47278;49.732;7.690;2023-06-10T00:30:32;14.30;99.90
61412;DHT22;47278;49.732;7.690;2023-06-10T00:32:58;14.30;99.90
61412;DHT22;47278;49.732;7.690;2023-06-10T00:35:25;14.30;99.90
61412;DHT22;47278;49.732;7.690;2023-06-10T00:37:51;14.30;99.90
61412;DHT22;47278;49.732;7.690;2023-06-10T00:40:17;14.30;99.90
61412;DHT22;47278;49.732;7.690;2023-06-10T00:42:43;14.20;99.90
61412;DHT22;47278;49.732;7.690;2023-06-10T00:45:09;14.20;99.90
61412;DHT22;47278;49.732;7.690;2023-06-10T00:47:35;14.10;99.90
61412;DHT22;47278;49.732;7.690;2023-06-10T00:50:01;14.10;99.90
61412;DHT22;47278;49.732;7.690;2023-06-10T00:52:28;14.10;99.90
61412;DHT22;47278;49.732;7.690;2023-06-10T00:54:55;14.00;99.90
61412;DHT22;47278;49.732;7.690;2023-06-10T00:57:21;14.00;99.90
61412;DHT22;47278;49.732;7.690;2023-06-10T00:59:48;14.00;99.90
61412;DHT22;47278;49.732;7.690;2023-06-10T01:02:14;13.90;99.90
61412;DHT22;47278;49.732;7.690;2023-06-10T01:04:40;13.70;99.90
61412;DHT22;47278;49.732;7.690;2023-06-10T01:14:30;12.50;99.90
61412;DHT22;47278;49.732;7.690;2023-06-10T01:16:57;13.90;99.90
61412;DHT22;47278;49.732;7.690;2023-06-10T01:19:25;13.80;99.90
61412;DHT22;47278;49.732;7.690;2023-06-10T01:21:56;13.70;99.90
61412;DHT22;47278;49.732;7.690;2023-06-10T01:24:28;13.50;99.90
61412;DHT22;47278;49.732;7.690;2023-06-10T01:26:59;13.40;99.90
61412;DHT22;47278;49.732;7.690;2023-06-10T01:29:31;13.40;99.90
61412;DHT22;47278;49.732;7.690;2023-06-10T01:32:01;13.40;99.90
61412;DHT22;47278;49.732;7.690;2023-06-10T01:34:28;13.50;99.90
61412;DHT22;47278;49.732;7.690;2023-06-10T01:36:56;13.40;99.90
61412;DHT22;47278;49.732;7.690;2023-06-10T01:39:24;13.30;99.90
61412;DHT22;47278;49.732;7.690;2023-06-10T01:41:50;13.30;99.90
61412;DHT22;47278;49.732;7.690;2023-06-10T01:44:21;13.30;99.90
61412;DHT22;47278;49.732;7.690;2023-06-10T01:46:47;13.30;99.90
61412;DHT22;47278;49.732;7.690;2023-06-10T01:49:13;13.40;99.90
61412;DHT22;47278;49.732;7.690;2023-06-10T01:51:39;13.50;99.90
61412;DHT22;47278;49.732;7.690;2023-06-10T01:54:05;13.50;99.90
61412;DHT22;47278;49.732;7.690;2023-06-10T01:56:32;13.40;99.90
61412;DHT22;47278;49.732;7.690;2023-06-10T01:58:58;13.40;99.90
61412;DHT22;47278;49.732;7.690;2023-06-10T02:01:27;13.30;99.90
61412;DHT22;47278;49.732;7.690;2023-06-10T02:03:53;13.10;99.90
61412;DHT22;47278;49.732;7.690;2023-06-10T02:06:19;13.10;99.90
61412;DHT22;47278;49.732;7.690;2023-06-10T02:08:45;13.10;99.90
61412;DHT22;47278;49.732;7.690;2023-06-10T02:11:11;13.10;99.90
61412;DHT22;47278;49.732;7.690;2023-06-10T02:13:40;13.00;99.90
61412;DHT22;47278;49.732;7.690;2023-06-10T02:16:06;13.10;99.90
61412;DHT22;47278;49.732;7.690;2023-06-10T02:18:32;13.00;99.90
61412;DHT22;47278;49.732;7.690;2023-06-10T02:20:59;12.90;99.90
61412;DHT22;47278;49.732;7.690;2023-06-10T02:23:24;12.90;99.90
61412;DHT22;47278;49.732;7.690;2023-06-10T02:25:50;12.80;99.90
61412;DHT22;47278;49.732;7.690;2023-06-10T02:28:16;12.70;99.90
61412;DHT22;47278;49.732;7.690;2023-06-10T02:30:42;12.80;99.90
61412;DHT22;47278;49.732;7.690;2023-06-10T02:33:08;13.10;99.90
61412;DHT22;47278;49.732;7.690;2023-06-10T02:35:38;12.80;99.90
61412;DHT22;47278;49.732;7.690;2023-06-10T02:38:03;12.80;99.90
61412;DHT22;47278;49.732;7.690;2023-06-10T02:40:32;12.80;99.90
61412;DHT22;47278;49.732;7.690;2023-06-10T02:42:58;12.70;99.90
61412;DHT22;47278;49.732;7.690;2023-06-10T02:45:24;12.70;99.90
61412;DHT22;47278;49.732;7.690;2023-06-10T02:47:50;12.50;99.90
61412;DHT22;47278;49.732;7.690;2023-06-10T02:50:16;12.50;99.90
61412;DHT22;47278;49.732;7.690;2023-06-10T02:52:42;12.50;99.90
61412;DHT22;47278;49.732;7.690;2023-06-10T02:55:11;12.50;99.90
61412;DHT22;47278;49.732;7.690;2023-06-10T02:57:37;12.50;99.90
61412;DHT22;47278;49.732;7.690;2023-06-10T03:00:03;12.40;99.90
61412;DHT22;47278;49.732;7.690;2023-06-10T03:02:34;12.40;99.90
61412;DHT22;47278;49.732;7.690;2023-06-10T03:05:02;12.50;99.90
61412;DHT22;47278;49.732;7.690;2023-06-10T03:07:28;12.40;99.90
61412;DHT22;47278;49.732;7.690;2023-06-10T03:09:54;12.40;99.90
61412;DHT22;47278;49.732;7.690;2023-06-10T03:12:19;12.30;99.90
61412;DHT22;47278;49.732;7.690;2023-06-10T03:14:46;12.20;99.90
61412;DHT22;47278;49.732;7.690;2023-06-10T03:17:15;12.30;99.90
61412;DHT22;47278;49.732;7.690;2023-06-10T03:19:41;12.30;99.90
61412;DHT22;47278;49.732;7.690;2023-06-10T03:22:08;12.20;99.90
61412;DHT22;47278;49.732;7.690;2023-06-10T03:24:35;12.30;99.90
61412;DHT22;47278;49.732;7.690;2023-06-10T03:27:01;12.30;99.90
61412;DHT22;47278;49.732;7.690;2023-06-10T03:29:27;12.30;99.90
61412;DHT22;47278;49.732;7.690;2023-06-10T03:31:53;12.30;99.90
61412;DHT22;47278;49.732;7.690;2023-06-10T03:34:19;12.20;99.90
61412;DHT22;47278;49.732;7.690;2023-06-10T03:36:45;12.30;99.90
61412;DHT22;47278;49.732;7.690;2023-06-10T03:39:11;12.20;99.90
61412;DHT22;47278;49.732;7.690;2023-06-10T03:41:37;12.10;99.90
61412;DHT22;47278;49.732;7.690;2023-06-10T03:44:03;12.20;99.90
61412;DHT22;47278;49.732;7.690;2023-06-10T03:46:29;12.20;99.90
61412;DHT22;47278;49.732;7.690;2023-06-10T03:48:55;12.20;99.90
61412;DHT22;47278;49.732;7.690;2023-06-10T03:51:21;12.30;99.90
61412;DHT22;47278;49.732;7.690;2023-06-10T03:53:47;12.30;99.90
61412;DHT22;47278;49.732;7.690;2023-06-10T03:56:12;12.30;99.90
61412;DHT22;47278;49.732;7.690;2023-06-10T03:58:38;12.20;99.90
61412;DHT22;47278;49.732;7.690;2023-06-10T04:01:04;12.20;99.90
61412;DHT22;47278;49.732;7.690;2023-06-10T04:03:30;12.20;99.90
61412;DHT22;47278;49.732;7.690;2023-06-10T04:05:56;12.20;99.90
61412;DHT22;47278;49.732;7.690;2023-06-10T04:08:22;12.20;99.90
61412;DHT22;47278;49.732;7.690;2023-06-10T04:10:48;12.30;99.90
61412;DHT22;47278;49.732;7.690;2023-06-10T04:13:14;12.40;99.90
61412;DHT22;47278;49.732;7.690;2023-06-10T04:15:40;14.50;99.90
61412;DHT22;47278;49.732;7.690;2023-06-10T04:18:06;12.30;99.90
61412;DHT22;47278;49.732;7.690;2023-06-10T04:20:32;12.40;99.90
61412;DHT22;47278;49.732;7.690;2023-06-10T04:22:57;12.40;99.90
61412;DHT22;47278;49.732;7.690;2023-06-10T04:25:25;12.40;99.90
61412;DHT22;47278;49.732;7.690;2023-06-10T04:27:51;12.50;99.90
61412;DHT22;47278;49.732;7.690;2023-06-10T04:30:17;12.60;99.90
61412;DHT22;47278;49.732;7.690;2023-06-10T04:32:43;12.60;99.90
61412;DHT22;47278;49.732;7.690;2023-06-10T04:35:11;12.70;99.90
61412;DHT22;47278;49.732;7.690;2023-06-10T04:37:37;12.70;99.90
61412;DHT22;47278;49.732;7.690;2023-06-10T04:40:03;12.70;99.90
61412;DHT22;47278;49.732;7.690;2023-06-10T04:42:30;12.70;99.90
61412;DHT22;47278;49.732;7.690;2023-06-10T04:44:56;12.80;99.90
61412;DHT22;47278;49.732;7.690;2023-06-10T04:47:23;12.80;99.90
61412;DHT22;47278;49.732;7.690;2023-06-10T04:49:48;12.80;99.90
61412;DHT22;47278;49.732;7.690;2023-06-10T04:52:14;12.90;99.90
61412;DHT22;47278;49.732;7.690;2023-06-10T04:54:40;12.90;99.90
61412;DHT22;47278;49.732;7.690;2023-06-10T04:57:06;13.00;99.90
61412;DHT22;47278;49.732;7.690;2023-06-10T04:59:33;13.00;99.90
61412;DHT22;47278;49.732;7.690;2023-06-10T05:02:03;13.00;99.90
61412;DHT22;47278;49.732;7.690;2023-06-10T05:04:29;13.10;99.90
61412;DHT22;47278;49.732;7.690;2023-06-10T05:06:55;13.10;99.90
61412;DHT22;47278;49.732;7.690;2023-06-10T05:09:21;13.30;99.90
61412;DHT22;47278;49.732;7.690;2023-06-10T05:11:47;13.30;99.90
61412;DHT22;47278;49.732;7.690;2023-06-10T05:14:13;13.40;99.90
61412;DHT22;47278;49.732;7.690;2023-06-10T05:16:38;13.50;99.90
61412;DHT22;47278;49.732;7.690;2023-06-10T05:19:04;13.50;99.90
61412;DHT22;47278;49.732;7.690;2023-06-10T05:21:30;13.60;99.90
61412;DHT22;47278;49.732;7.690;2023-06-10T05:23:56;13.80;99.90
61412;DHT22;47278;49.732;7.690;2023-06-10T05:26:22;13.90;99.90
61412;DHT22;47278;49.732;7.690;2023-06-10T05:28:47;14.00;99.90
61412;DHT22;47278;49.732;7.690;2023-06-10T05:31:13;14.00;99.90
61412;DHT22;47278;49.732;7.690;2023-06-10T05:33:39;14.10;99.90
61412;DHT22;47278;49.732;7.690;2023-06-10T05:36:05;14.30;99.90
61412;DHT22;47278;49.732;7.690;2023-06-10T05:38:31;14.40;99.90
61412;DHT22;47278;49.732;7.690;2023-06-10T05:40:56;14.50;99.90
61412;DHT22;47278;49.732;7.690;2023-06-10T05:43:24;14.60;99.90
61412;DHT22;47278;49.732;7.690;2023-06-10T05:45:49;14.70;99.90
61412;DHT22;47278;49.732;7.690;2023-06-10T05:48:15;14.70;99.90
61412;DHT22;47278;49.732;7.690;2023-06-10T05:50:41;14.80;99.90
61412;DHT22;47278;49.732;7.690;2023-06-10T05:53:10;14.90;99.90
61412;DHT22;47278;49.732;7.690;2023-06-10T05:55:46;15.00;99.90
61412;DHT22;47278;49.732;7.690;2023-06-10T05:58:12;15.10;99.90
61412;DHT22;47278;49.732;7.690;2023-06-10T06:00:38;15.20;99.90
61412;DHT22;47278;49.732;7.690;2023-06-10T06:03:05;15.20;99.90
61412;DHT22;47278;49.732;7.690;2023-06-10T06:05:31;15.40;99.90
61412;DHT22;47278;49.732;7.690;2023-06-10T06:08:03;15.50;99.90
61412;DHT22;47278;49.732;7.690;2023-06-10T06:10:29;15.60;99.90
61412;DHT22;47278;49.732;7.690;2023-06-10T06:12:55;15.80;99.90
61412;DHT22;47278;49.732;7.690;2023-06-10T06:15:20;16.00;99.90
61412;DHT22;47278;49.732;7.690;2023-06-10T06:17:46;16.20;99.90
61412;DHT22;47278;49.732;7.690;2023-06-10T06:20:12;16.30;99.90
61412;DHT22;47278;49.732;7.690;2023-06-10T06:22:37;16.50;99.90
61412;DHT22;47278;49.732;7.690;2023-06-10T06:25:03;16.70;99.90
61412;DHT22;47278;49.732;7.690;2023-06-10T06:27:30;16.90;99.90
61412;DHT22;47278;49.732;7.690;2023-06-10T06:29:56;17.10;99.90
61412;DHT22;47278;49.732;7.690;2023-06-10T06:32:21;17.30;99.90
61412;DHT22;47278;49.732;7.690;2023-06-10T06:34:48;17.40;99.90
61412;DHT22;47278;49.732;7.690;2023-06-10T06:37:22;17.60;99.90
61412;DHT22;47278;49.732;7.690;2023-06-10T06:39:52;17.70;99.90
61412;DHT22;47278;49.732;7.690;2023-06-10T06:42:18;18.00;99.90
61412;DHT22;47278;49.732;7.690;2023-06-10T06:44:44;18.20;99.90
61412;DHT22;47278;49.732;7.690;2023-06-10T06:47:10;18.30;99.90
61412;DHT22;47278;49.732;7.690;2023-06-10T06:49:36;18.50;99.90
61412;DHT22;47278;49.732;7.690;2023-06-10T06:52:02;18.60;99.90
61412;DHT22;47278;49.732;7.690;2023-06-10T06:54:27;18.80;99.90
61412;DHT22;47278;49.732;7.690;2023-06-10T06:56:53;19.10;99.90
61412;DHT22;47278;49.732;7.690;2023-06-10T06:59:19;19.10;99.90
61412;DHT22;47278;49.732;7.690;2023-06-10T07:01:45;19.40;99.90
61412;DHT22;47278;49.732;7.690;2023-06-10T07:04:11;19.50;99.90
61412;DHT22;47278;49.732;7.690;2023-06-10T07:06:37;19.70;99.90
61412;DHT22;47278;49.732;7.690;2023-06-10T07:09:04;19.90;99.90
61412;DHT22;47278;49.732;7.690;2023-06-10T07:11:30;20.00;99.90
61412;DHT22;47278;49.732;7.690;2023-06-10T07:13:56;20.10;99.90
61412;DHT22;47278;49.732;7.690;2023-06-10T07:16:22;20.40;99.90
61412;DHT22;47278;49.732;7.690;2023-06-10T07:18:48;20.50;99.90
61412;DHT22;47278;49.732;7.690;2023-06-10T07:21:13;20.60;99.90
61412;DHT22;47278;49.732;7.690;2023-06-10T07:23:42;20.60;99.90
61412;DHT22;47278;49.732;7.690;2023-06-10T07:26:08;20.70;99.90
61412;DHT22;47278;49.732;7.690;2023-06-10T07:28:36;20.80;99.90
61412;DHT22;47278;49.732;7.690;2023-06-10T07:31:03;20.90;99.90
61412;DHT22;47278;49.732;7.690;2023-06-10T07:33:28;21.90;99.90
61412;DHT22;47278;49.732;7.690;2023-06-10T07:35:55;21.10;99.90
61412;DHT22;47278;49.732;7.690;2023-06-10T07:38:20;21.20;99.90
61412;DHT22;47278;49.732;7.690;2023-06-10T07:40:46;21.40;99.90
61412;DHT22;47278;49.732;7.690;2023-06-10T07:43:12;21.60;99.90
61412;DHT22;47278;49.732;7.690;2023-06-10T07:45:41;21.60;99.90
61412;DHT22;47278;49.732;7.690;2023-06-10T07:48:06;21.80;99.90
61412;DHT22;47278;49.732;7.690;2023-06-10T07:50:33;21.90;99.90
61412;DHT22;47278;49.732;7.690;2023-06-10T07:52:58;22.00;99.90
61412;DHT22;47278;49.732;7.690;2023-06-10T07:55:24;22.10;99.90
61412;DHT22;47278;49.732;7.690;2023-06-10T07:57:51;21.10;99.90
61412;DHT22;47278;49.732;7.690;2023-06-10T08:00:17;22.30;99.90
61412;DHT22;47278;49.732;7.690;2023-06-10T08:02:43;22.40;99.90
61412;DHT22;47278;49.732;7.690;2023-06-10T08:05:09;22.50;99.90
61412;DHT22;47278;49.732;7.690;2023-06-10T08:07:35;22.60;99.90
61412;DHT22;47278;49.732;7.690;2023-06-10T08:10:01;22.70;99.90
61412;DHT22;47278;49.732;7.690;2023-06-10T08:12:27;22.70;99.90
61412;DHT22;47278;49.732;7.690;2023-06-10T08:14:53;22.80;99.90
61412;DHT22;47278;49.732;7.690;2023-06-10T08:17:20;22.90;99.90
61412;DHT22;47278;49.732;7.690;2023-06-10T08:19:46;23.00;99.90
61412;DHT22;47278;49.732;7.690;2023-06-10T08:22:12;23.10;99.90
61412;DHT22;47278;49.732;7.690;2023-06-10T08:24:38;23.20;99.90
61412;DHT22;47278;49.732;7.690;2023-06-10T08:27:04;23.30;99.90
61412;DHT22;47278;49.732;7.690;2023-06-10T08:29:31;23.40;99.90
61412;DHT22;47278;49.732;7.690;2023-06-10T08:31:57;23.60;99.90
61412;DHT22;47278;49.732;7.690;2023-06-10T08:34:23;23.70;99.90
61412;DHT22;47278;49.732;7.690;2023-06-10T08:36:49;23.90;99.90
61412;DHT22;47278;49.732;7.690;2023-06-10T08:39:21;24.10;99.90
61412;DHT22;47278;49.732;7.690;2023-06-10T08:44:28;24.50;99.90
61412;DHT22;47278;49.732;7.690;2023-06-10T08:46:58;24.60;99.90
61412;DHT22;47278;49.732;7.690;2023-06-10T08:49:25;24.60;99.90
61412;DHT22;47278;49.732;7.690;2023-06-10T08:51:51;24.70;99.90
61412;DHT22;47278;49.732;7.690;2023-06-10T08:54:21;25.10;99.90
61412;DHT22;47278;49.732;7.690;2023-06-10T08:56:48;25.30;99.90
61412;DHT22;47278;49.732;7.690;2023-06-10T08:59:14;25.50;99.90
61412;DHT22;47278;49.732;7.690;2023-06-10T09:01:42;25.60;99.90
61412;DHT22;47278;49.732;7.690;2023-06-10T09:04:08;25.90;99.90
61412;DHT22;47278;49.732;7.690;2023-06-10T09:06:33;25.90;99.90
61412;DHT22;47278;49.732;7.690;2023-06-10T09:08:59;25.90;99.90
61412;DHT22;47278;49.732;7.690;2023-06-10T09:11:25;25.90;99.90
61412;DHT22;47278;49.732;7.690;2023-06-10T09:13:52;26.30;99.90
61412;DHT22;47278;49.732;7.690;2023-06-10T09:16:18;26.20;99.90
61412;DHT22;47278;49.732;7.690;2023-06-10T09:18:44;26.40;99.90
61412;DHT22;47278;49.732;7.690;2023-06-10T09:21:10;26.40;99.90
61412;DHT22;47278;49.732;7.690;2023-06-10T09:23:36;26.50;99.90
61412;DHT22;47278;49.732;7.690;2023-06-10T09:26:02;26.60;99.90
61412;DHT22;47278;49.732;7.690;2023-06-10T09:28:30;26.80;99.90
61412;DHT22;47278;49.732;7.690;2023-06-10T09:31:05;26.70;99.90
61412;DHT22;47278;49.732;7.690;2023-06-10T09:33:32;26.70;99.90
61412;DHT22;47278;49.732;7.690;2023-06-10T09:35:59;27.00;99.90
61412;DHT22;47278;49.732;7.690;2023-06-10T09:38:29;27.50;99.90
61412;DHT22;47278;49.732;7.690;2023-06-10T09:40:55;27.60;99.90
61412;DHT22;47278;49.732;7.690;2023-06-10T09:43:21;27.40;99.90
61412;DHT22;47278;49.732;7.690;2023-06-10T09:45:50;27.50;99.90
61412;DHT22;47278;49.732;7.690;2023-06-10T09:48:18;27.50;99.90
61412;DHT22;47278;49.732;7.690;2023-06-10T09:50:44;27.50;99.90
61412;DHT22;47278;49.732;7.690;2023-06-10T09:53:10;27.60;99.90
61412;DHT22;47278;49.732;7.690;2023-06-10T09:55:39;27.90;99.90
61412;DHT22;47278;49.732;7.690;2023-06-10T09:58:05;27.80;99.90
61412;DHT22;47278;49.732;7.690;2023-06-10T10:00:32;28.10;99.90
61412;DHT22;47278;49.732;7.690;2023-06-10T10:02:58;28.30;99.90
61412;DHT22;47278;49.732;7.690;2023-06-10T10:05:24;28.20;99.90
61412;DHT22;47278;49.732;7.690;2023-06-10T10:07:50;28.30;99.90
61412;DHT22;47278;49.732;7.690;2023-06-10T10:10:17;28.00;99.90
61412;DHT22;47278;49.732;7.690;2023-06-10T10:12:43;28.30;99.90
61412;DHT22;47278;49.732;7.690;2023-06-10T10:15:11;28.20;99.90
61412;DHT22;47278;49.732;7.690;2023-06-10T10:17:42;28.30;99.90
61412;DHT22;47278;49.732;7.690;2023-06-10T10:20:09;28.20;99.90
61412;DHT22;47278;49.732;7.690;2023-06-10T10:22:38;28.10;99.90
61412;DHT22;47278;49.732;7.690;2023-06-10T10:25:16;28.30;99.90
61412;DHT22;47278;49.732;7.690;2023-06-10T10:27:49;28.70;99.90
61412;DHT22;47278;49.732;7.690;2023-06-10T10:30:17;28.60;99.90
61412;DHT22;47278;49.732;7.690;2023-06-10T10:35:21;29.00;99.90
61412;DHT22;47278;49.732;7.690;2023-06-10T10:37:54;29.20;99.90
61412;DHT22;47278;49.732;7.690;2023-06-10T10:40:21;29.50;99.90
61412;DHT22;47278;49.732;7.690;2023-06-10T10:42:47;29.20;99.90
61412;DHT22;47278;49.732;7.690;2023-06-10T10:45:13;29.20;99.60
61412;DHT22;47278;49.732;7.690;2023-06-10T10:47:40;29.30;99.90
61412;DHT22;47278;49.732;7.690;2023-06-10T10:50:16;29.40;99.90
61412;DHT22;47278;49.732;7.690;2023-06-10T10:53:01;29.60;99.90
61412;DHT22;47278;49.732;7.690;2023-06-10T10:55:27;29.60;99.10
61412;DHT22;47278;49.732;7.690;2023-06-10T10:57:54;29.50;99.70
61412;DHT22;47278;49.732;7.690;2023-06-10T11:00:30;29.80;99.90
61412;DHT22;47278;49.732;7.690;2023-06-10T11:03:00;29.80;99.90
61412;DHT22;47278;49.732;7.690;2023-06-10T11:08:02;29.50;99.70
61412;DHT22;47278;49.732;7.690;2023-06-10T11:10:40;29.70;99.90
61412;DHT22;47278;49.732;7.690;2023-06-10T11:13:12;29.80;99.90
61412;DHT22;47278;49.732;7.690;2023-06-10T11:15:39;30.30;99.90
61412;DHT22;47278;49.732;7.690;2023-06-10T11:20:44;29.50;96.20
61412;DHT22;47278;49.732;7.690;2023-06-10T11:23:24;29.70;97.70
61412;DHT22;47278;49.732;7.690;2023-06-10T11:25:50;29.50;97.20
61412;DHT22;47278;49.732;7.690;2023-06-10T11:28:19;29.80;96.00
61412;DHT22;47278;49.732;7.690;2023-06-10T11:30:45;30.20;97.70
61412;DHT22;47278;49.732;7.690;2023-06-10T11:33:17;30.10;97.40
61412;DHT22;47278;49.732;7.690;2023-06-10T11:35:43;30.00;94.50
61412;DHT22;47278;49.732;7.690;2023-06-10T11:38:09;30.20;95.10
61412;DHT22;47278;49.732;7.690;2023-06-10T11:40:36;30.50;98.00
61412;DHT22;47278;49.732;7.690;2023-06-10T11:43:03;30.40;94.20
61412;DHT22;47278;49.732;7.690;2023-06-10T11:45:29;30.20;95.20
61412;DHT22;47278;49.732;7.690;2023-06-10T11:47:55;30.60;96.70
61412;DHT22;47278;49.732;7.690;2023-06-10T11:50:29;31.20;98.80
61412;DHT22;47278;49.732;7.690;2023-06-10T11:52:55;31.10;98.50
61412;DHT22;47278;49.732;7.690;2023-06-10T11:55:25;31.20;97.00
61412;DHT22;47278;49.732;7.690;2023-06-10T11:57:51;30.90;94.40
61412;DHT22;47278;49.732;7.690;2023-06-10T12:00:23;31.10;94.40
61412;DHT22;47278;49.732;7.690;2023-06-10T12:02:59;30.90;95.50
61412;DHT22;47278;49.732;7.690;2023-06-10T12:05:24;31.20;95.70
61412;DHT22;47278;49.732;7.690;2023-06-10T12:08:07;31.40;93.70
61412;DHT22;47278;49.732;7.690;2023-06-10T12:10:33;31.20;93.80
61412;DHT22;47278;49.732;7.690;2023-06-10T12:13:04;31.50;96.50
61412;DHT22;47278;49.732;7.690;2023-06-10T12:15:30;31.80;91.80
61412;DHT22;47278;49.732;7.690;2023-06-10T12:17:55;31.50;95.40
61412;DHT22;47278;49.732;7.690;2023-06-10T12:20:25;31.30;94.40
61412;DHT22;47278;49.732;7.690;2023-06-10T12:22:51;30.80;95.20
61412;DHT22;47278;49.732;7.690;2023-06-10T12:25:17;30.90;94.80
61412;DHT22;47278;49.732;7.690;2023-06-10T12:27:50;31.10;95.00
61412;DHT22;47278;49.732;7.690;2023-06-10T12:30:18;31.70;93.40
61412;DHT22;47278;49.732;7.690;2023-06-10T12:32:44;31.90;95.90
61412;DHT22;47278;49.732;7.690;2023-06-10T12:35:11;32.00;93.20
61412;DHT22;47278;49.732;7.690;2023-06-10T12:40:40;31.10;91.40
61412;DHT22;47278;49.732;7.690;2023-06-10T12:43:06;30.50;92.50
61412;DHT22;47278;49.732;7.690;2023-06-10T12:45:33;31.20;94.20
61412;DHT22;47278;49.732;7.690;2023-06-10T12:50:32;31.50;91.80
61412;DHT22;47278;49.732;7.690;2023-06-10T12:52:59;32.10;95.50
61412;DHT22;47278;49.732;7.690;2023-06-10T12:55:24;31.90;92.00
61412;DHT22;47278;49.732;7.690;2023-06-10T12:57:50;31.50;93.30
61412;DHT22;47278;49.732;7.690;2023-06-10T13:00:17;31.30;93.00
61412;DHT22;47278;49.732;7.690;2023-06-10T13:02:43;31.70;91.80
61412;DHT22;47278;49.732;7.690;2023-06-10T13:05:09;31.80;92.40
61412;DHT22;47278;49.732;7.690;2023-06-10T13:07:35;32.10;92.60
61412;DHT22;47278;49.732;7.690;2023-06-10T13:13:04;31.60;90.80
61412;DHT22;47278;49.732;7.690;2023-06-10T13:15:32;31.70;94.40
61412;DHT22;47278;49.732;7.690;2023-06-10T13:18:02;31.80;92.00
61412;DHT22;47278;49.732;7.690;2023-06-10T13:20:29;31.90;92.20
61412;DHT22;47278;49.732;7.690;2023-06-10T13:22:55;32.10;91.70
61412;DHT22;47278;49.732;7.690;2023-06-10T13:25:21;32.10;91.10
61412;DHT22;47278;49.732;7.690;2023-06-10T13:27:46;32.40;93.10
61412;DHT22;47278;49.732;7.690;2023-06-10T13:30:12;32.60;89.20
61412;DHT22;47278;49.732;7.690;2023-06-10T13:32:39;32.50;91.10
61412;DHT22;47278;49.732;7.690;2023-06-10T13:35:05;32.40;90.20
61412;DHT22;47278;49.732;7.690;2023-06-10T13:37:30;32.60;90.90
61412;DHT22;47278;49.732;7.690;2023-06-10T13:39:58;32.60;90.00
61412;DHT22;47278;49.732;7.690;2023-06-10T13:42:25;32.70;93.70
61412;DHT22;47278;49.732;7.690;2023-06-10T13:44:51;32.60;88.90
61412;DHT22;47278;49.732;7.690;2023-06-10T13:47:17;32.50;87.90
61412;DHT22;47278;49.732;7.690;2023-06-10T13:49:43;32.40;88.30
61412;DHT22;47278;49.732;7.690;2023-06-10T13:52:09;32.10;90.40
61412;DHT22;47278;49.732;7.690;2023-06-10T13:54:35;31.50;89.40
61412;DHT22;47278;49.732;7.690;2023-06-10T13:57:03;31.30;90.60
61412;DHT22;47278;49.732;7.690;2023-06-10T13:59:29;32.00;90.80
61412;DHT22;47278;49.732;7.690;2023-06-10T14:01:56;32.70;88.90
61412;DHT22;47278;49.732;7.690;2023-06-10T14:04:22;33.00;87.00
61412;DHT22;47278;49.732;7.690;2023-06-10T14:06:48;33.20;89.40
61412;DHT22;47278;49.732;7.690;2023-06-10T14:09:14;32.90;86.90
61412;DHT22;47278;49.732;7.690;2023-06-10T14:11:39;32.40;89.80
61412;DHT22;47278;49.732;7.690;2023-06-10T14:14:05;32.40;87.70
61412;DHT22;47278;49.732;7.690;2023-06-10T14:16:31;31.00;88.40
61412;DHT22;47278;49.732;7.690;2023-06-10T14:18:57;31.00;90.20
61412;DHT22;47278;49.732;7.690;2023-06-10T14:21:23;31.80;91.40
61412;DHT22;47278;49.732;7.690;2023-06-10T14:23:49;32.00;89.50
61412;DHT22;47278;49.732;7.690;2023-06-10T14:26:17;32.30;90.40
61412;DHT22;47278;49.732;7.690;2023-06-10T14:28:42;32.40;90.00
61412;DHT22;47278;49.732;7.690;2023-06-10T14:31:08;32.80;89.50
61412;DHT22;47278;49.732;7.690;2023-06-10T14:33:34;32.80;87.90
61412;DHT22;47278;49.732;7.690;2023-06-10T14:35:59;32.80;89.20
61412;DHT22;47278;49.732;7.690;2023-06-10T14:38:25;32.90;91.00
61412;DHT22;47278;49.732;7.690;2023-06-10T14:40:51;33.00;86.40
61412;DHT22;47278;49.732;7.690;2023-06-10T14:43:17;33.00;86.60
61412;DHT22;47278;49.732;7.690;2023-06-10T14:45:43;32.50;86.00
61412;DHT22;47278;49.732;7.690;2023-06-10T14:48:10;32.30;84.20
61412;DHT22;47278;49.732;7.690;2023-06-10T14:50:37;32.50;87.90
61412;DHT22;47278;49.732;7.690;2023-06-10T14:53:03;32.30;85.00
61412;DHT22;47278;49.732;7.690;2023-06-10T14:55:28;32.60;88.60
61412;DHT22;47278;49.732;7.690;2023-06-10T14:57:55;33.00;84.40
61412;DHT22;47278;49.732;7.690;2023-06-10T15:00:22;33.10;85.90
61412;DHT22;47278;49.732;7.690;2023-06-10T15:02:49;32.90;81.60
61412;DHT22;47278;49.732;7.690;2023-06-10T15:05:15;33.30;81.40
61412;DHT22;47278;49.732;7.690;2023-06-10T15:07:42;33.40;90.00
61412;DHT22;47278;49.732;7.690;2023-06-10T15:10:08;33.40;81.20
61412;DHT22;47278;49.732;7.690;2023-06-10T15:12:35;33.50;81.60
61412;DHT22;47278;49.732;7.690;2023-06-10T15:15:01;33.70;78.40
61412;DHT22;47278;49.732;7.690;2023-06-10T15:17:27;33.70;87.00
61412;DHT22;47278;49.732;7.690;2023-06-10T15:19:53;33.70;79.40
61412;DHT22;47278;49.732;7.690;2023-06-10T15:22:19;33.60;77.40
61412;DHT22;47278;49.732;7.690;2023-06-10T15:24:45;33.80;81.00
61412;DHT22;47278;49.732;7.690;2023-06-10T15:27:11;34.00;77.40
61412;DHT22;47278;49.732;7.690;2023-06-10T15:29:36;34.10;75.00
61412;DHT22;47278;49.732;7.690;2023-06-10T15:32:02;34.80;79.80
61412;DHT22;47278;49.732;7.690;2023-06-10T15:34:28;35.70;75.30
61412;DHT22;47278;49.732;7.690;2023-06-10T15:36:53;36.40;69.70
61412;DHT22;47278;49.732;7.690;2023-06-10T15:39:19;36.40;67.90
61412;DHT22;47278;49.732;7.690;2023-06-10T15:41:45;36.40;70.30
61412;DHT22;47278;49.732;7.690;2023-06-10T15:44:20;36.70;70.30
61412;DHT22;47278;49.732;7.690;2023-06-10T15:46:46;36.60;68.10
61412;DHT22;47278;49.732;7.690;2023-06-10T15:49:12;37.40;68.00
61412;DHT22;47278;49.732;7.690;2023-06-10T15:51:38;37.30;70.10
61412;DHT22;47278;49.732;7.690;2023-06-10T15:54:04;37.00;68.50